sensor_id;sensor_type;location;lat;lon;timestamp;P1;durP1;ratioP1;P2;durP2;ratioP2
10469;SDS011;5282;47.052;15.458;2023-10-08T00:02:22;4.03;;;3.73;;
10469;SDS011;5282;47.052;15.458;2023-10-08T00:04:51;4.40;;;4.10;;
10469;SDS011;5282;47.052;15.458;2023-10-08T00:07:21;4.57;;;4.20;;
10469;SDS011;5282;47.052;15.458;2023-10-08T00:09:50;7.20;;;4.67;;
10469;SDS011;5282;47.052;15.458;2023-10-08T00:12:18;4.70;;;4.30;;
10469;SDS011;5282;47.052;15.458;2023-10-08T00:14:46;4.37;;;4.07;;
10469;SDS011;5282;47.052;15.458;2023-10-08T00:17:14;4.90;;;4.50;;
10469;SDS011;5282;47.052;15.458;2023-10-08T00:19:42;4.80;;;4.47;;
10469;SDS011;5282;47.052;15.458;2023-10-08T00:22:12;5.23;;;4.73;;
10469;SDS011;5282;47.052;15.458;2023-10-08T00:24:45;4.57;;;4.27;;
10469;SDS011;5282;47.052;15.458;2023-10-08T00:27:14;4.27;;;3.97;;
10469;SDS011;5282;47.052;15.458;2023-10-08T00:29:43;5.13;;;4.73;;
10469;SDS011;5282;47.052;15.458;2023-10-08T00:32:10;4.70;;;4.40;;
10469;SDS011;5282;47.052;15.458;2023-10-08T00:34:40;5.30;;;4.77;;
10469;SDS011;5282;47.052;15.458;2023-10-08T00:37:08;4.63;;;4.23;;
10469;SDS011;5282;47.052;15.458;2023-10-08T00:39:39;5.70;;;5.23;;
10469;SDS011;5282;47.052;15.458;2023-10-08T00:42:08;5.13;;;4.83;;
10469;SDS011;5282;47.052;15.458;2023-10-08T00:44:38;4.60;;;4.30;;
10469;SDS011;5282;47.052;15.458;2023-10-08T00:47:14;5.07;;;4.77;;
10469;SDS011;5282;47.052;15.458;2023-10-08T00:49:43;4.87;;;4.47;;
10469;SDS011;5282;47.052;15.458;2023-10-08T00:52:28;4.70;;;4.30;;
10469;SDS011;5282;47.052;15.458;2023-10-08T00:55:03;5.53;;;5.13;;
10469;SDS011;5282;47.052;15.458;2023-10-08T00:57:36;5.57;;;5.20;;
10469;SDS011;5282;47.052;15.458;2023-10-08T01:00:09;5.30;;;4.70;;
10469;SDS011;5282;47.052;15.458;2023-10-08T01:02:48;5.10;;;4.77;;
10469;SDS011;5282;47.052;15.458;2023-10-08T01:05:22;5.77;;;5.37;;
10469;SDS011;5282;47.052;15.458;2023-10-08T01:08:08;5.60;;;5.10;;
10469;SDS011;5282;47.052;15.458;2023-10-08T01:10:39;5.00;;;4.70;;
10469;SDS011;5282;47.052;15.458;2023-10-08T01:13:15;5.70;;;5.20;;
10469;SDS011;5282;47.052;15.458;2023-10-08T01:15:46;5.43;;;5.00;;
10469;SDS011;5282;47.052;15.458;2023-10-08T01:18:16;4.80;;;4.50;;
10469;SDS011;5282;47.052;15.458;2023-10-08T01:20:54;5.50;;;5.00;;
10469;SDS011;5282;47.052;15.458;2023-10-08T01:23:31;5.03;;;4.57;;
10469;SDS011;5282;47.052;15.458;2023-10-08T01:25:58;4.50;;;4.10;;
10469;SDS011;5282;47.052;15.458;2023-10-08T01:28:36;4.43;;;4.13;;
10469;SDS011;5282;47.052;15.458;2023-10-08T01:31:03;4.97;;;4.47;;
10469;SDS011;5282;47.052;15.458;2023-10-08T01:33:32;4.70;;;4.40;;
10469;SDS011;5282;47.052;15.458;2023-10-08T01:36:03;4.53;;;4.23;;
10469;SDS011;5282;47.052;15.458;2023-10-08T01:38:34;4.27;;;3.97;;
10469;SDS011;5282;47.052;15.458;2023-10-08T01:41:01;4.33;;;4.03;;
10469;SDS011;5282;47.052;15.458;2023-10-08T01:43:35;4.07;;;3.77;;
10469;SDS011;5282;47.052;15.458;2023-10-08T01:46:04;5.03;;;4.40;;
10469;SDS011;5282;47.052;15.458;2023-10-08T01:48:36;4.20;;;3.80;;
10469;SDS011;5282;47.052;15.458;2023-10-08T01:51:04;4.23;;;3.97;;
10469;SDS011;5282;47.052;15.458;2023-10-08T01:53:38;4.30;;;3.90;;
10469;SDS011;5282;47.052;15.458;2023-10-08T01:56:05;4.20;;;3.83;;
10469;SDS011;5282;47.052;15.458;2023-10-08T01:58:35;4.27;;;3.97;;
10469;SDS011;5282;47.052;15.458;2023-10-08T02:01:03;4.67;;;4.20;;
10469;SDS011;5282;47.052;15.458;2023-10-08T02:03:38;4.13;;;3.83;;
10469;SDS011;5282;47.052;15.458;2023-10-08T02:06:09;3.90;;;3.70;;
10469;SDS011;5282;47.052;15.458;2023-10-08T02:08:41;4.23;;;3.90;;
10469;SDS011;5282;47.052;15.458;2023-10-08T02:11:08;4.03;;;3.73;;
10469;SDS011;5282;47.052;15.458;2023-10-08T02:13:39;4.67;;;4.27;;
10469;SDS011;5282;47.052;15.458;2023-10-08T02:16:08;4.00;;;3.70;;
10469;SDS011;5282;47.052;15.458;2023-10-08T02:18:37;3.40;;;3.20;;
10469;SDS011;5282;47.052;15.458;2023-10-08T02:21:05;3.97;;;3.63;;
10469;SDS011;5282;47.052;15.458;2023-10-08T02:23:44;3.90;;;3.60;;
10469;SDS011;5282;47.052;15.458;2023-10-08T02:26:11;4.13;;;3.80;;
10469;SDS011;5282;47.052;15.458;2023-10-08T02:28:40;3.70;;;3.40;;
10469;SDS011;5282;47.052;15.458;2023-10-08T02:31:07;3.43;;;3.23;;
10469;SDS011;5282;47.052;15.458;2023-10-08T02:33:34;5.93;;;3.90;;
10469;SDS011;5282;47.052;15.458;2023-10-08T02:36:02;3.97;;;3.67;;
10469;SDS011;5282;47.052;15.458;2023-10-08T02:38:30;4.40;;;4.00;;
10469;SDS011;5282;47.052;15.458;2023-10-08T02:41:04;3.97;;;3.67;;
10469;SDS011;5282;47.052;15.458;2023-10-08T02:43:33;5.60;;;3.83;;
10469;SDS011;5282;47.052;15.458;2023-10-08T02:46:02;4.30;;;4.00;;
10469;SDS011;5282;47.052;15.458;2023-10-08T02:48:32;3.90;;;3.60;;
10469;SDS011;5282;47.052;15.458;2023-10-08T02:51:00;3.90;;;3.60;;
10469;SDS011;5282;47.052;15.458;2023-10-08T02:53:33;3.70;;;3.50;;
10469;SDS011;5282;47.052;15.458;2023-10-08T02:56:00;3.50;;;3.30;;
10469;SDS011;5282;47.052;15.458;2023-10-08T02:58:38;3.40;;;3.20;;
10469;SDS011;5282;47.052;15.458;2023-10-08T03:01:07;3.40;;;3.20;;
10469;SDS011;5282;47.052;15.458;2023-10-08T03:03:39;3.57;;;3.27;;
10469;SDS011;5282;47.052;15.458;2023-10-08T03:06:08;3.33;;;3.10;;
10469;SDS011;5282;47.052;15.458;2023-10-08T03:08:37;3.73;;;3.37;;
10469;SDS011;5282;47.052;15.458;2023-10-08T03:11:08;3.27;;;2.97;;
10469;SDS011;5282;47.052;15.458;2023-10-08T03:13:44;3.10;;;2.73;;
10469;SDS011;5282;47.052;15.458;2023-10-08T03:16:12;2.87;;;2.67;;
10469;SDS011;5282;47.052;15.458;2023-10-08T03:18:39;4.83;;;3.10;;
10469;SDS011;5282;47.052;15.458;2023-10-08T03:21:10;3.00;;;2.80;;
10469;SDS011;5282;47.052;15.458;2023-10-08T03:23:46;3.30;;;3.00;;
10469;SDS011;5282;47.052;15.458;2023-10-08T03:26:15;3.03;;;2.83;;
10469;SDS011;5282;47.052;15.458;2023-10-08T03:29:00;3.87;;;2.90;;
10469;SDS011;5282;47.052;15.458;2023-10-08T03:31:33;3.77;;;2.87;;
10469;SDS011;5282;47.052;15.458;2023-10-08T03:34:15;3.50;;;3.10;;
10469;SDS011;5282;47.052;15.458;2023-10-08T03:36:44;3.17;;;2.50;;
10469;SDS011;5282;47.052;15.458;2023-10-08T03:39:11;4.90;;;2.87;;
10469;SDS011;5282;47.052;15.458;2023-10-08T03:41:39;3.00;;;2.63;;
10469;SDS011;5282;47.052;15.458;2023-10-08T03:44:08;3.03;;;2.80;;
10469;SDS011;5282;47.052;15.458;2023-10-08T03:46:39;3.10;;;2.80;;
10469;SDS011;5282;47.052;15.458;2023-10-08T03:49:08;2.80;;;2.60;;
10469;SDS011;5282;47.052;15.458;2023-10-08T03:51:50;4.27;;;2.43;;
10469;SDS011;5282;47.052;15.458;2023-10-08T03:54:19;3.30;;;2.37;;
10469;SDS011;5282;47.052;15.458;2023-10-08T03:56:49;2.93;;;2.63;;
10469;SDS011;5282;47.052;15.458;2023-10-08T03:59:17;2.93;;;2.30;;
10469;SDS011;5282;47.052;15.458;2023-10-08T04:01:56;2.70;;;2.27;;
10469;SDS011;5282;47.052;15.458;2023-10-08T04:04:34;4.60;;;2.90;;
10469;SDS011;5282;47.052;15.458;2023-10-08T04:07:15;3.23;;;2.77;;
10469;SDS011;5282;47.052;15.458;2023-10-08T04:09:54;5.27;;;2.90;;
10469;SDS011;5282;47.052;15.458;2023-10-08T04:12:41;3.33;;;2.60;;
10469;SDS011;5282;47.052;15.458;2023-10-08T04:15:14;3.33;;;2.40;;
10469;SDS011;5282;47.052;15.458;2023-10-08T04:17:42;3.30;;;2.57;;
10469;SDS011;5282;47.052;15.458;2023-10-08T04:20:10;3.63;;;2.80;;
10469;SDS011;5282;47.052;15.458;2023-10-08T04:22:56;2.87;;;2.63;;
10469;SDS011;5282;47.052;15.458;2023-10-08T04:25:24;2.77;;;2.57;;
10469;SDS011;5282;47.052;15.458;2023-10-08T04:27:53;3.33;;;2.60;;
10469;SDS011;5282;47.052;15.458;2023-10-08T04:30:25;2.20;;;2.00;;
10469;SDS011;5282;47.052;15.458;2023-10-08T04:32:59;4.10;;;2.37;;
10469;SDS011;5282;47.052;15.458;2023-10-08T04:35:32;3.07;;;2.40;;
10469;SDS011;5282;47.052;15.458;2023-10-08T04:38:03;2.70;;;2.50;;
10469;SDS011;5282;47.052;15.458;2023-10-08T04:40:30;2.57;;;2.33;;
10469;SDS011;5282;47.052;15.458;2023-10-08T04:43:04;3.07;;;2.20;;
10469;SDS011;5282;47.052;15.458;2023-10-08T04:45:37;3.80;;;2.93;;
10469;SDS011;5282;47.052;15.458;2023-10-08T04:48:04;3.17;;;2.47;;
10469;SDS011;5282;47.052;15.458;2023-10-08T04:50:35;4.47;;;2.67;;
10469;SDS011;5282;47.052;15.458;2023-10-08T04:53:02;2.97;;;2.30;;
10469;SDS011;5282;47.052;15.458;2023-10-08T04:55:33;3.60;;;2.33;;
10469;SDS011;5282;47.052;15.458;2023-10-08T04:58:01;2.70;;;2.50;;
10469;SDS011;5282;47.052;15.458;2023-10-08T05:00:46;4.10;;;2.63;;
10469;SDS011;5282;47.052;15.458;2023-10-08T05:03:20;2.30;;;2.10;;
10469;SDS011;5282;47.052;15.458;2023-10-08T05:05:49;2.50;;;2.30;;
10469;SDS011;5282;47.052;15.458;2023-10-08T05:08:33;6.60;;;2.53;;
10469;SDS011;5282;47.052;15.458;2023-10-08T05:11:12;2.60;;;2.40;;
10469;SDS011;5282;47.052;15.458;2023-10-08T05:14:02;2.70;;;2.50;;
10469;SDS011;5282;47.052;15.458;2023-10-08T05:16:42;2.63;;;2.43;;
10469;SDS011;5282;47.052;15.458;2023-10-08T05:19:10;2.97;;;2.30;;
10469;SDS011;5282;47.052;15.458;2023-10-08T05:22:03;2.70;;;2.50;;
10469;SDS011;5282;47.052;15.458;2023-10-08T05:24:43;3.77;;;2.70;;
10469;SDS011;5282;47.052;15.458;2023-10-08T05:27:31;4.30;;;2.60;;
10469;SDS011;5282;47.052;15.458;2023-10-08T05:30:22;2.50;;;2.30;;
10469;SDS011;5282;47.052;15.458;2023-10-08T05:33:05;2.80;;;2.60;;
10469;SDS011;5282;47.052;15.458;2023-10-08T05:35:38;2.77;;;2.40;;
10469;SDS011;5282;47.052;15.458;2023-10-08T05:38:28;2.70;;;2.50;;
10469;SDS011;5282;47.052;15.458;2023-10-08T05:41:13;2.13;;;2.03;;
10469;SDS011;5282;47.052;15.458;2023-10-08T05:43:56;3.10;;;2.73;;
10469;SDS011;5282;47.052;15.458;2023-10-08T05:46:36;2.53;;;2.33;;
10469;SDS011;5282;47.052;15.458;2023-10-08T05:49:16;3.33;;;2.43;;
10469;SDS011;5282;47.052;15.458;2023-10-08T05:52:00;4.13;;;2.90;;
10469;SDS011;5282;47.052;15.458;2023-10-08T05:54:50;4.73;;;2.70;;
10469;SDS011;5282;47.052;15.458;2023-10-08T05:57:46;4.03;;;2.37;;
10469;SDS011;5282;47.052;15.458;2023-10-08T06:00:17;2.67;;;2.47;;
10469;SDS011;5282;47.052;15.458;2023-10-08T06:03:10;4.00;;;2.60;;
10469;SDS011;5282;47.052;15.458;2023-10-08T06:06:02;2.57;;;2.37;;
10469;SDS011;5282;47.052;15.458;2023-10-08T06:08:43;4.30;;;2.87;;
10469;SDS011;5282;47.052;15.458;2023-10-08T06:11:33;3.17;;;2.90;;
10469;SDS011;5282;47.052;15.458;2023-10-08T06:14:10;3.73;;;3.00;;
10469;SDS011;5282;47.052;15.458;2023-10-08T06:16:42;4.00;;;3.47;;
10469;SDS011;5282;47.052;15.458;2023-10-08T06:19:09;3.93;;;3.50;;
10469;SDS011;5282;47.052;15.458;2023-10-08T06:21:39;3.73;;;3.30;;
10469;SDS011;5282;47.052;15.458;2023-10-08T06:24:08;5.00;;;3.00;;
10469;SDS011;5282;47.052;15.458;2023-10-08T06:26:37;6.50;;;3.27;;
10469;SDS011;5282;47.052;15.458;2023-10-08T06:29:10;3.50;;;3.20;;
10469;SDS011;5282;47.052;15.458;2023-10-08T06:31:52;2.60;;;2.50;;
10469;SDS011;5282;47.052;15.458;2023-10-08T06:34:20;3.63;;;2.60;;
10469;SDS011;5282;47.052;15.458;2023-10-08T06:36:50;2.73;;;2.50;;
10469;SDS011;5282;47.052;15.458;2023-10-08T06:39:19;3.00;;;2.80;;
10469;SDS011;5282;47.052;15.458;2023-10-08T06:41:52;5.33;;;3.17;;
10469;SDS011;5282;47.052;15.458;2023-10-08T06:44:20;4.27;;;3.03;;
10469;SDS011;5282;47.052;15.458;2023-10-08T06:46:48;4.50;;;2.70;;
10469;SDS011;5282;47.052;15.458;2023-10-08T06:49:17;5.67;;;3.30;;
10469;SDS011;5282;47.052;15.458;2023-10-08T06:51:46;3.20;;;2.90;;
10469;SDS011;5282;47.052;15.458;2023-10-08T06:54:15;4.10;;;3.00;;
10469;SDS011;5282;47.052;15.458;2023-10-08T06:56:43;7.87;;;2.90;;
10469;SDS011;5282;47.052;15.458;2023-10-08T06:59:12;3.10;;;2.80;;
10469;SDS011;5282;47.052;15.458;2023-10-08T07:01:39;6.23;;;3.00;;
10469;SDS011;5282;47.052;15.458;2023-10-08T07:04:06;6.40;;;2.90;;
10469;SDS011;5282;47.052;15.458;2023-10-08T07:06:37;4.20;;;2.63;;
10469;SDS011;5282;47.052;15.458;2023-10-08T07:09:05;3.03;;;2.77;;
10469;SDS011;5282;47.052;15.458;2023-10-08T07:11:40;3.07;;;2.83;;
10469;SDS011;5282;47.052;15.458;2023-10-08T07:14:10;2.80;;;2.60;;
10469;SDS011;5282;47.052;15.458;2023-10-08T07:16:39;4.57;;;2.93;;
10469;SDS011;5282;47.052;15.458;2023-10-08T07:19:07;3.43;;;3.10;;
10469;SDS011;5282;47.052;15.458;2023-10-08T07:21:43;3.13;;;2.93;;
10469;SDS011;5282;47.052;15.458;2023-10-08T07:24:11;4.83;;;3.27;;
10469;SDS011;5282;47.052;15.458;2023-10-08T07:26:42;3.73;;;3.10;;
10469;SDS011;5282;47.052;15.458;2023-10-08T07:29:12;4.70;;;3.07;;
10469;SDS011;5282;47.052;15.458;2023-10-08T07:31:42;6.53;;;3.33;;
10469;SDS011;5282;47.052;15.458;2023-10-08T07:34:14;3.37;;;3.07;;
10469;SDS011;5282;47.052;15.458;2023-10-08T07:36:51;3.73;;;2.90;;
10469;SDS011;5282;47.052;15.458;2023-10-08T07:39:19;4.00;;;3.60;;
10469;SDS011;5282;47.052;15.458;2023-10-08T07:41:53;3.73;;;2.87;;
10469;SDS011;5282;47.052;15.458;2023-10-08T07:44:21;5.97;;;3.10;;
10469;SDS011;5282;47.052;15.458;2023-10-08T07:46:48;4.07;;;2.80;;
10469;SDS011;5282;47.052;15.458;2023-10-08T07:49:16;5.77;;;3.23;;
10469;SDS011;5282;47.052;15.458;2023-10-08T07:51:43;4.83;;;3.30;;
10469;SDS011;5282;47.052;15.458;2023-10-08T07:54:16;3.30;;;3.00;;
10469;SDS011;5282;47.052;15.458;2023-10-08T07:56:45;3.17;;;3.03;;
10469;SDS011;5282;47.052;15.458;2023-10-08T07:59:14;4.67;;;3.07;;
10469;SDS011;5282;47.052;15.458;2023-10-08T08:01:42;4.27;;;3.10;;
10469;SDS011;5282;47.052;15.458;2023-10-08T08:04:09;4.67;;;3.03;;
10469;SDS011;5282;47.052;15.458;2023-10-08T08:06:47;6.87;;;3.20;;
10469;SDS011;5282;47.052;15.458;2023-10-08T08:09:15;4.37;;;3.40;;
10469;SDS011;5282;47.052;15.458;2023-10-08T08:11:45;3.83;;;3.40;;
10469;SDS011;5282;47.052;15.458;2023-10-08T08:14:14;3.73;;;3.43;;
10469;SDS011;5282;47.052;15.458;2023-10-08T08:16:43;3.67;;;3.33;;
10469;SDS011;5282;47.052;15.458;2023-10-08T08:19:13;5.63;;;3.47;;
10469;SDS011;5282;47.052;15.458;2023-10-08T08:21:42;3.73;;;3.00;;
10469;SDS011;5282;47.052;15.458;2023-10-08T08:24:11;3.43;;;3.13;;
10469;SDS011;5282;47.052;15.458;2023-10-08T08:26:38;3.30;;;3.00;;
10469;SDS011;5282;47.052;15.458;2023-10-08T08:29:10;5.83;;;3.60;;
10469;SDS011;5282;47.052;15.458;2023-10-08T08:31:41;6.43;;;3.73;;
10469;SDS011;5282;47.052;15.458;2023-10-08T08:34:11;4.23;;;3.33;;
10469;SDS011;5282;47.052;15.458;2023-10-08T08:36:44;4.37;;;3.60;;
10469;SDS011;5282;47.052;15.458;2023-10-08T08:39:14;4.70;;;3.63;;
10469;SDS011;5282;47.052;15.458;2023-10-08T08:41:55;4.80;;;3.20;;
10469;SDS011;5282;47.052;15.458;2023-10-08T08:44:27;5.50;;;3.87;;
10469;SDS011;5282;47.052;15.458;2023-10-08T08:46:57;3.13;;;2.87;;
10469;SDS011;5282;47.052;15.458;2023-10-08T08:49:25;4.10;;;3.40;;
10469;SDS011;5282;47.052;15.458;2023-10-08T08:51:54;4.63;;;3.43;;
10469;SDS011;5282;47.052;15.458;2023-10-08T08:54:26;6.13;;;3.93;;
10469;SDS011;5282;47.052;15.458;2023-10-08T08:56:55;5.37;;;3.70;;
10469;SDS011;5282;47.052;15.458;2023-10-08T08:59:25;5.03;;;4.03;;
10469;SDS011;5282;47.052;15.458;2023-10-08T09:01:57;6.97;;;3.93;;
10469;SDS011;5282;47.052;15.458;2023-10-08T09:04:28;4.37;;;4.00;;
10469;SDS011;5282;47.052;15.458;2023-10-08T09:06:57;6.13;;;4.47;;
10469;SDS011;5282;47.052;15.458;2023-10-08T09:09:30;7.23;;;3.63;;
10469;SDS011;5282;47.052;15.458;2023-10-08T09:11:58;7.53;;;4.17;;
10469;SDS011;5282;47.052;15.458;2023-10-08T09:14:26;6.13;;;3.80;;
10469;SDS011;5282;47.052;15.458;2023-10-08T09:16:58;4.40;;;3.83;;
10469;SDS011;5282;47.052;15.458;2023-10-08T09:19:29;7.57;;;4.50;;
10469;SDS011;5282;47.052;15.458;2023-10-08T09:22:00;5.60;;;3.90;;
10469;SDS011;5282;47.052;15.458;2023-10-08T09:24:29;6.03;;;4.30;;
10469;SDS011;5282;47.052;15.458;2023-10-08T09:26:56;5.20;;;4.40;;
10469;SDS011;5282;47.052;15.458;2023-10-08T09:29:23;5.47;;;4.73;;
10469;SDS011;5282;47.052;15.458;2023-10-08T09:31:52;7.63;;;4.37;;
10469;SDS011;5282;47.052;15.458;2023-10-08T09:34:22;6.23;;;4.83;;
10469;SDS011;5282;47.052;15.458;2023-10-08T09:36:53;5.07;;;4.47;;
10469;SDS011;5282;47.052;15.458;2023-10-08T09:39:22;7.37;;;4.93;;
10469;SDS011;5282;47.052;15.458;2023-10-08T09:41:50;6.93;;;4.63;;
10469;SDS011;5282;47.052;15.458;2023-10-08T09:44:20;6.07;;;4.37;;
10469;SDS011;5282;47.052;15.458;2023-10-08T09:46:51;5.33;;;4.83;;
10469;SDS011;5282;47.052;15.458;2023-10-08T09:49:30;7.47;;;4.80;;
10469;SDS011;5282;47.052;15.458;2023-10-08T09:52:02;4.27;;;3.97;;
10469;SDS011;5282;47.052;15.458;2023-10-08T09:54:31;7.57;;;4.13;;
10469;SDS011;5282;47.052;15.458;2023-10-08T09:57:05;4.40;;;4.00;;
10469;SDS011;5282;47.052;15.458;2023-10-08T09:59:33;7.30;;;4.17;;
10469;SDS011;5282;47.052;15.458;2023-10-08T10:02:01;6.40;;;4.50;;
10469;SDS011;5282;47.052;15.458;2023-10-08T10:04:31;6.23;;;3.97;;
10469;SDS011;5282;47.052;15.458;2023-10-08T10:06:58;6.87;;;3.90;;
10469;SDS011;5282;47.052;15.458;2023-10-08T10:09:34;5.73;;;3.90;;
10469;SDS011;5282;47.052;15.458;2023-10-08T10:12:02;4.87;;;3.63;;
10469;SDS011;5282;47.052;15.458;2023-10-08T10:14:40;5.53;;;4.23;;
10469;SDS011;5282;47.052;15.458;2023-10-08T10:17:09;6.10;;;4.40;;
10469;SDS011;5282;47.052;15.458;2023-10-08T10:19:41;8.00;;;5.10;;
10469;SDS011;5282;47.052;15.458;2023-10-08T10:22:12;7.37;;;4.33;;
10469;SDS011;5282;47.052;15.458;2023-10-08T10:24:41;6.77;;;4.47;;
10469;SDS011;5282;47.052;15.458;2023-10-08T10:27:11;6.07;;;4.07;;
10469;SDS011;5282;47.052;15.458;2023-10-08T10:29:41;5.13;;;3.80;;
10469;SDS011;5282;47.052;15.458;2023-10-08T10:32:10;5.80;;;3.83;;
10469;SDS011;5282;47.052;15.458;2023-10-08T10:34:42;4.23;;;3.83;;
10469;SDS011;5282;47.052;15.458;2023-10-08T10:37:12;7.90;;;4.30;;
10469;SDS011;5282;47.052;15.458;2023-10-08T10:39:54;4.57;;;3.70;;
10469;SDS011;5282;47.052;15.458;2023-10-08T10:42:25;4.30;;;3.90;;
10469;SDS011;5282;47.052;15.458;2023-10-08T10:44:53;6.77;;;3.73;;
10469;SDS011;5282;47.052;15.458;2023-10-08T10:47:23;4.40;;;3.80;;
10469;SDS011;5282;47.052;15.458;2023-10-08T10:50:09;4.73;;;3.73;;
10469;SDS011;5282;47.052;15.458;2023-10-08T10:52:55;4.67;;;3.50;;
10469;SDS011;5282;47.052;15.458;2023-10-08T10:55:23;3.63;;;3.20;;
10469;SDS011;5282;47.052;15.458;2023-10-08T10:57:57;6.77;;;3.83;;
10469;SDS011;5282;47.052;15.458;2023-10-08T11:00:30;7.07;;;3.70;;
10469;SDS011;5282;47.052;15.458;2023-10-08T11:03:14;5.73;;;3.27;;
10469;SDS011;5282;47.052;15.458;2023-10-08T11:05:51;4.93;;;3.20;;
10469;SDS011;5282;47.052;15.458;2023-10-08T11:08:25;4.60;;;3.27;;
10469;SDS011;5282;47.052;15.458;2023-10-08T11:10:59;8.33;;;3.63;;
10469;SDS011;5282;47.052;15.458;2023-10-08T11:13:32;5.73;;;3.57;;
10469;SDS011;5282;47.052;15.458;2023-10-08T11:16:03;5.47;;;3.87;;
10469;SDS011;5282;47.052;15.458;2023-10-08T11:18:32;7.43;;;4.03;;
10469;SDS011;5282;47.052;15.458;2023-10-08T11:21:07;7.27;;;3.70;;
10469;SDS011;5282;47.052;15.458;2023-10-08T11:23:41;5.80;;;4.30;;
10469;SDS011;5282;47.052;15.458;2023-10-08T11:26:09;5.57;;;4.00;;
10469;SDS011;5282;47.052;15.458;2023-10-08T11:28:37;6.93;;;4.03;;
10469;SDS011;5282;47.052;15.458;2023-10-08T11:31:10;6.47;;;4.07;;
10469;SDS011;5282;47.052;15.458;2023-10-08T11:33:39;5.07;;;3.70;;
10469;SDS011;5282;47.052;15.458;2023-10-08T11:36:09;7.03;;;4.03;;
10469;SDS011;5282;47.052;15.458;2023-10-08T11:38:44;6.13;;;4.37;;
10469;SDS011;5282;47.052;15.458;2023-10-08T11:41:13;7.90;;;3.43;;
10469;SDS011;5282;47.052;15.458;2023-10-08T11:43:54;5.80;;;3.73;;
10469;SDS011;5282;47.052;15.458;2023-10-08T11:46:23;8.10;;;4.03;;
10469;SDS011;5282;47.052;15.458;2023-10-08T11:48:58;9.90;;;3.83;;
10469;SDS011;5282;47.052;15.458;2023-10-08T11:51:31;6.40;;;4.37;;
10469;SDS011;5282;47.052;15.458;2023-10-08T11:53:59;6.30;;;4.33;;
10469;SDS011;5282;47.052;15.458;2023-10-08T11:56:26;9.30;;;4.60;;
10469;SDS011;5282;47.052;15.458;2023-10-08T11:58:54;7.17;;;4.00;;
10469;SDS011;5282;47.052;15.458;2023-10-08T12:01:24;3.97;;;3.57;;
10469;SDS011;5282;47.052;15.458;2023-10-08T12:03:52;3.87;;;3.40;;
10469;SDS011;5282;47.052;15.458;2023-10-08T12:06:24;7.93;;;3.60;;
10469;SDS011;5282;47.052;15.458;2023-10-08T12:08:56;6.47;;;3.87;;
10469;SDS011;5282;47.052;15.458;2023-10-08T12:11:24;8.87;;;3.60;;
10469;SDS011;5282;47.052;15.458;2023-10-08T12:13:56;5.93;;;3.50;;
10469;SDS011;5282;47.052;15.458;2023-10-08T12:16:25;3.83;;;3.27;;
10469;SDS011;5282;47.052;15.458;2023-10-08T12:18:55;5.63;;;3.53;;
10469;SDS011;5282;47.052;15.458;2023-10-08T12:21:24;7.13;;;3.87;;
10469;SDS011;5282;47.052;15.458;2023-10-08T12:23:51;4.40;;;3.10;;
10469;SDS011;5282;47.052;15.458;2023-10-08T12:26:21;6.07;;;2.90;;
10469;SDS011;5282;47.052;15.458;2023-10-08T12:28:48;3.83;;;2.60;;
10469;SDS011;5282;47.052;15.458;2023-10-08T12:31:16;3.67;;;3.20;;
10469;SDS011;5282;47.052;15.458;2023-10-08T12:33:47;4.33;;;2.70;;
10469;SDS011;5282;47.052;15.458;2023-10-08T12:36:14;3.47;;;3.07;;
10469;SDS011;5282;47.052;15.458;2023-10-08T12:38:42;3.97;;;2.67;;
10469;SDS011;5282;47.052;15.458;2023-10-08T12:41:10;3.37;;;3.00;;
10469;SDS011;5282;47.052;15.458;2023-10-08T12:43:43;3.87;;;2.63;;
10469;SDS011;5282;47.052;15.458;2023-10-08T12:46:11;6.57;;;2.53;;
10469;SDS011;5282;47.052;15.458;2023-10-08T12:48:43;5.03;;;3.17;;
10469;SDS011;5282;47.052;15.458;2023-10-08T12:51:13;6.90;;;3.37;;
10469;SDS011;5282;47.052;15.458;2023-10-08T12:53:41;2.97;;;2.77;;
10469;SDS011;5282;47.052;15.458;2023-10-08T12:56:16;4.83;;;2.90;;
10469;SDS011;5282;47.052;15.458;2023-10-08T12:58:48;4.27;;;2.37;;
10469;SDS011;5282;47.052;15.458;2023-10-08T13:01:15;5.60;;;2.87;;
10469;SDS011;5282;47.052;15.458;2023-10-08T13:03:44;4.97;;;3.33;;
10469;SDS011;5282;47.052;15.458;2023-10-08T13:06:19;6.20;;;2.77;;
10469;SDS011;5282;47.052;15.458;2023-10-08T13:08:54;4.07;;;2.77;;
10469;SDS011;5282;47.052;15.458;2023-10-08T13:11:24;5.57;;;2.50;;
10469;SDS011;5282;47.052;15.458;2023-10-08T13:13:56;4.70;;;2.93;;
10469;SDS011;5282;47.052;15.458;2023-10-08T13:16:25;3.83;;;2.73;;
10469;SDS011;5282;47.052;15.458;2023-10-08T13:18:57;5.00;;;2.43;;
10469;SDS011;5282;47.052;15.458;2023-10-08T13:21:27;4.73;;;2.80;;
10469;SDS011;5282;47.052;15.458;2023-10-08T13:23:57;5.40;;;2.87;;
10469;SDS011;5282;47.052;15.458;2023-10-08T13:26:29;4.97;;;2.83;;
10469;SDS011;5282;47.052;15.458;2023-10-08T13:29:00;4.00;;;2.53;;
10469;SDS011;5282;47.052;15.458;2023-10-08T13:31:28;9.10;;;2.93;;
10469;SDS011;5282;47.052;15.458;2023-10-08T13:34:02;3.30;;;2.43;;
10469;SDS011;5282;47.052;15.458;2023-10-08T13:36:34;6.97;;;2.53;;
10469;SDS011;5282;47.052;15.458;2023-10-08T13:39:05;7.03;;;2.80;;
10469;SDS011;5282;47.052;15.458;2023-10-08T13:41:35;7.40;;;2.80;;
10469;SDS011;5282;47.052;15.458;2023-10-08T13:44:08;7.73;;;2.80;;
10469;SDS011;5282;47.052;15.458;2023-10-08T13:46:38;6.00;;;2.57;;
10469;SDS011;5282;47.052;15.458;2023-10-08T13:49:14;6.10;;;2.80;;
10469;SDS011;5282;47.052;15.458;2023-10-08T13:51:44;6.87;;;3.17;;
10469;SDS011;5282;47.052;15.458;2023-10-08T13:54:15;4.97;;;2.90;;
10469;SDS011;5282;47.052;15.458;2023-10-08T13:56:46;5.20;;;3.00;;
10469;SDS011;5282;47.052;15.458;2023-10-08T13:59:17;4.90;;;3.33;;
10469;SDS011;5282;47.052;15.458;2023-10-08T14:01:48;8.27;;;3.57;;
10469;SDS011;5282;47.052;15.458;2023-10-08T14:04:17;4.93;;;2.93;;
10469;SDS011;5282;47.052;15.458;2023-10-08T14:06:48;6.27;;;3.50;;
10469;SDS011;5282;47.052;15.458;2023-10-08T14:09:20;8.97;;;3.50;;
10469;SDS011;5282;47.052;15.458;2023-10-08T14:11:57;3.53;;;2.97;;
10469;SDS011;5282;47.052;15.458;2023-10-08T14:14:27;6.20;;;3.33;;
10469;SDS011;5282;47.052;15.458;2023-10-08T14:16:57;5.87;;;3.10;;
10469;SDS011;5282;47.052;15.458;2023-10-08T14:19:31;4.63;;;3.30;;
10469;SDS011;5282;47.052;15.458;2023-10-08T14:22:05;7.63;;;3.40;;
10469;SDS011;5282;47.052;15.458;2023-10-08T14:24:34;6.93;;;3.13;;
10469;SDS011;5282;47.052;15.458;2023-10-08T14:27:04;4.83;;;2.90;;
10469;SDS011;5282;47.052;15.458;2023-10-08T14:29:39;7.07;;;3.63;;
10469;SDS011;5282;47.052;15.458;2023-10-08T14:32:10;8.63;;;3.80;;
10469;SDS011;5282;47.052;15.458;2023-10-08T14:34:38;6.20;;;4.10;;
10469;SDS011;5282;47.052;15.458;2023-10-08T14:37:24;7.23;;;4.03;;
10469;SDS011;5282;47.052;15.458;2023-10-08T14:40:09;9.00;;;4.17;;
10469;SDS011;5282;47.052;15.458;2023-10-08T14:42:55;5.17;;;3.90;;
10469;SDS011;5282;47.052;15.458;2023-10-08T14:45:29;7.10;;;3.20;;
10469;SDS011;5282;47.052;15.458;2023-10-08T14:48:01;3.20;;;2.20;;
10469;SDS011;5282;47.052;15.458;2023-10-08T14:50:31;4.40;;;2.03;;
10469;SDS011;5282;47.052;15.458;2023-10-08T14:53:00;4.57;;;2.20;;
10469;SDS011;5282;47.052;15.458;2023-10-08T14:55:31;1.90;;;1.80;;
10469;SDS011;5282;47.052;15.458;2023-10-08T14:58:01;2.33;;;1.57;;
10469;SDS011;5282;47.052;15.458;2023-10-08T15:00:35;1.37;;;1.30;;
10469;SDS011;5282;47.052;15.458;2023-10-08T15:03:04;2.47;;;2.30;;
10469;SDS011;5282;47.052;15.458;2023-10-08T15:05:34;1.43;;;1.07;;
10469;SDS011;5282;47.052;15.458;2023-10-08T15:08:05;1.70;;;1.60;;
10469;SDS011;5282;47.052;15.458;2023-10-08T15:10:35;3.33;;;3.13;;
10469;SDS011;5282;47.052;15.458;2023-10-08T15:13:04;2.50;;;2.30;;
10469;SDS011;5282;47.052;15.458;2023-10-08T15:15:33;3.47;;;1.70;;
10469;SDS011;5282;47.052;15.458;2023-10-08T15:18:06;1.50;;;1.50;;